sensor_id;sensor_type;location;lat;lon;timestamp;temperature;humidity
81321;DHT22;70785;52.570;5.638;2023-09-18T00:00:52;17.00;80.10
81321;DHT22;70785;52.570;5.638;2023-09-18T00:03:20;17.00;80.10
81321;DHT22;70785;52.570;5.638;2023-09-18T00:05:47;17.00;80.10
81321;DHT22;70785;52.570;5.638;2023-09-18T00:08:17;17.10;80.10
81321;DHT22;70785;52.570;5.638;2023-09-18T00:10:51;17.20;80.10
81321;DHT22;70785;52.570;5.638;2023-09-18T00:13:18;17.20;80.10
81321;DHT22;70785;52.570;5.638;2023-09-18T00:15:44;17.20;80.10
81321;DHT22;70785;52.570;5.638;2023-09-18T00:18:16;17.20;80.10
81321;DHT22;70785;52.570;5.638;2023-09-18T00:20:42;17.20;80.10
81321;DHT22;70785;52.570;5.638;2023-09-18T00:23:09;17.40;80.10
81321;DHT22;70785;52.570;5.638;2023-09-18T00:25:36;17.40;80.10
81321;DHT22;70785;52.570;5.638;2023-09-18T00:28:03;17.40;80.10
81321;DHT22;70785;52.570;5.638;2023-09-18T00:30:29;17.40;80.10
81321;DHT22;70785;52.570;5.638;2023-09-18T00:32:55;17.50;80.10
81321;DHT22;70785;52.570;5.638;2023-09-18T00:35:21;17.50;80.00
81321;DHT22;70785;52.570;5.638;2023-09-18T00:37:49;17.50;80.00
81321;DHT22;70785;52.570;5.638;2023-09-18T00:40:15;17.50;80.00
81321;DHT22;70785;52.570;5.638;2023-09-18T00:42:41;17.50;80.00
81321;DHT22;70785;52.570;5.638;2023-09-18T00:45:07;17.50;80.00
81321;DHT22;70785;52.570;5.638;2023-09-18T00:47:35;17.50;79.90
81321;DHT22;70785;52.570;5.638;2023-09-18T00:50:04;17.50;79.90
81321;DHT22;70785;52.570;5.638;2023-09-18T00:52:31;17.60;79.90
81321;DHT22;70785;52.570;5.638;2023-09-18T00:54:58;17.60;79.90
81321;DHT22;70785;52.570;5.638;2023-09-18T00:57:26;17.60;79.80
81321;DHT22;70785;52.570;5.638;2023-09-18T00:59:52;17.60;79.80
81321;DHT22;70785;52.570;5.638;2023-09-18T01:02:18;17.60;79.80
81321;DHT22;70785;52.570;5.638;2023-09-18T01:04:48;17.60;79.80
81321;DHT22;70785;52.570;5.638;2023-09-18T01:07:15;17.70;79.80
81321;DHT22;70785;52.570;5.638;2023-09-18T01:09:41;17.80;79.70
81321;DHT22;70785;52.570;5.638;2023-09-18T01:14:57;17.80;79.50
81321;DHT22;70785;52.570;5.638;2023-09-18T01:17:26;17.80;79.40
81321;DHT22;70785;52.570;5.638;2023-09-18T01:19:52;17.80;79.50
81321;DHT22;70785;52.570;5.638;2023-09-18T01:22:19;17.80;79.40
81321;DHT22;70785;52.570;5.638;2023-09-18T01:24:46;17.80;79.50
81321;DHT22;70785;52.570;5.638;2023-09-18T01:27:14;17.80;79.40
81321;DHT22;70785;52.570;5.638;2023-09-18T01:29:43;17.80;79.40
81321;DHT22;70785;52.570;5.638;2023-09-18T01:32:10;17.80;79.30
81321;DHT22;70785;52.570;5.638;2023-09-18T01:34:50;17.80;79.40
81321;DHT22;70785;52.570;5.638;2023-09-18T01:37:20;17.80;79.40
81321;DHT22;70785;52.570;5.638;2023-09-18T01:39:48;17.80;79.30
81321;DHT22;70785;52.570;5.638;2023-09-18T01:42:15;17.80;79.20
81321;DHT22;70785;52.570;5.638;2023-09-18T01:44:41;17.80;79.20
81321;DHT22;70785;52.570;5.638;2023-09-18T01:47:10;17.80;79.10
81321;DHT22;70785;52.570;5.638;2023-09-18T01:49:38;17.90;79.10
81321;DHT22;70785;52.570;5.638;2023-09-18T01:52:05;17.90;79.00
81321;DHT22;70785;52.570;5.638;2023-09-18T01:54:32;17.90;79.00
81321;DHT22;70785;52.570;5.638;2023-09-18T01:56:59;17.90;79.00
81321;DHT22;70785;52.570;5.638;2023-09-18T01:59:26;17.90;79.00
81321;DHT22;70785;52.570;5.638;2023-09-18T02:01:53;17.90;78.90
81321;DHT22;70785;52.570;5.638;2023-09-18T02:04:22;17.80;78.90
81321;DHT22;70785;52.570;5.638;2023-09-18T02:06:50;17.80;79.00
81321;DHT22;70785;52.570;5.638;2023-09-18T02:09:17;17.90;79.00
81321;DHT22;70785;52.570;5.638;2023-09-18T02:11:44;17.90;78.90
81321;DHT22;70785;52.570;5.638;2023-09-18T02:14:11;17.90;78.90
81321;DHT22;70785;52.570;5.638;2023-09-18T02:16:39;17.90;78.90
81321;DHT22;70785;52.570;5.638;2023-09-18T02:19:10;18.00;78.90
81321;DHT22;70785;52.570;5.638;2023-09-18T02:21:37;18.00;78.90
81321;DHT22;70785;52.570;5.638;2023-09-18T02:24:05;18.00;78.90
81321;DHT22;70785;52.570;5.638;2023-09-18T02:26:31;18.00;78.80
81321;DHT22;70785;52.570;5.638;2023-09-18T02:28:59;18.00;78.80
81321;DHT22;70785;52.570;5.638;2023-09-18T02:31:26;18.00;78.80
81321;DHT22;70785;52.570;5.638;2023-09-18T02:33:54;18.00;78.70
81321;DHT22;70785;52.570;5.638;2023-09-18T02:36:20;18.00;78.80
81321;DHT22;70785;52.570;5.638;2023-09-18T02:38:48;18.00;78.70
81321;DHT22;70785;52.570;5.638;2023-09-18T02:41:14;18.00;78.70
81321;DHT22;70785;52.570;5.638;2023-09-18T02:43:40;18.10;78.70
81321;DHT22;70785;52.570;5.638;2023-09-18T02:46:08;18.10;78.60
81321;DHT22;70785;52.570;5.638;2023-09-18T02:48:37;18.00;78.60
81321;DHT22;70785;52.570;5.638;2023-09-18T02:51:03;18.00;78.70
81321;DHT22;70785;52.570;5.638;2023-09-18T02:53:29;18.00;78.70
81321;DHT22;70785;52.570;5.638;2023-09-18T02:55:58;18.00;78.70
81321;DHT22;70785;52.570;5.638;2023-09-18T02:58:25;18.00;78.70
81321;DHT22;70785;52.570;5.638;2023-09-18T03:00:53;18.00;78.70
81321;DHT22;70785;52.570;5.638;2023-09-18T03:03:20;18.10;78.60
81321;DHT22;70785;52.570;5.638;2023-09-18T03:05:46;18.10;78.60
81321;DHT22;70785;52.570;5.638;2023-09-18T03:08:13;18.10;78.70
81321;DHT22;70785;52.570;5.638;2023-09-18T03:10:41;18.00;78.70
81321;DHT22;70785;52.570;5.638;2023-09-18T03:13:08;18.00;78.80
81321;DHT22;70785;52.570;5.638;2023-09-18T03:15:35;18.00;78.80
81321;DHT22;70785;52.570;5.638;2023-09-18T03:18:03;18.00;78.80
81321;DHT22;70785;52.570;5.638;2023-09-18T03:20:30;18.00;78.90
81321;DHT22;70785;52.570;5.638;2023-09-18T03:23:02;18.00;78.90
81321;DHT22;70785;52.570;5.638;2023-09-18T03:25:28;18.00;79.00
81321;DHT22;70785;52.570;5.638;2023-09-18T03:27:56;18.00;79.00
81321;DHT22;70785;52.570;5.638;2023-09-18T03:30:27;18.00;79.00
81321;DHT22;70785;52.570;5.638;2023-09-18T03:32:53;18.00;79.00
81321;DHT22;70785;52.570;5.638;2023-09-18T03:35:20;18.00;79.00
81321;DHT22;70785;52.570;5.638;2023-09-18T03:37:49;18.00;79.00
81321;DHT22;70785;52.570;5.638;2023-09-18T03:40:17;18.00;79.00
81321;DHT22;70785;52.570;5.638;2023-09-18T03:42:44;18.00;79.00
81321;DHT22;70785;52.570;5.638;2023-09-18T03:45:10;18.10;79.00
81321;DHT22;70785;52.570;5.638;2023-09-18T03:47:38;18.10;79.00
81321;DHT22;70785;52.570;5.638;2023-09-18T03:50:09;18.10;79.00
81321;DHT22;70785;52.570;5.638;2023-09-18T03:52:36;18.10;79.10
81321;DHT22;70785;52.570;5.638;2023-09-18T03:55:02;18.10;79.10
81321;DHT22;70785;52.570;5.638;2023-09-18T03:57:29;18.00;79.10
81321;DHT22;70785;52.570;5.638;2023-09-18T03:59:55;18.00;79.10
81321;DHT22;70785;52.570;5.638;2023-09-18T04:02:25;18.00;79.10
81321;DHT22;70785;52.570;5.638;2023-09-18T04:04:53;18.00;79.20
81321;DHT22;70785;52.570;5.638;2023-09-18T04:07:19;18.00;79.10
81321;DHT22;70785;52.570;5.638;2023-09-18T04:09:46;18.00;79.10
81321;DHT22;70785;52.570;5.638;2023-09-18T04:12:12;18.00;79.00
81321;DHT22;70785;52.570;5.638;2023-09-18T04:14:38;18.00;79.10
81321;DHT22;70785;52.570;5.638;2023-09-18T04:17:05;18.00;79.10
81321;DHT22;70785;52.570;5.638;2023-09-18T04:19:31;17.90;79.10
81321;DHT22;70785;52.570;5.638;2023-09-18T04:21:58;17.90;79.10
81321;DHT22;70785;52.570;5.638;2023-09-18T04:24:26;17.90;79.20
81321;DHT22;70785;52.570;5.638;2023-09-18T04:26:52;18.00;79.20
81321;DHT22;70785;52.570;5.638;2023-09-18T04:29:19;18.00;79.30
81321;DHT22;70785;52.570;5.638;2023-09-18T04:31:45;18.00;79.30
81321;DHT22;70785;52.570;5.638;2023-09-18T04:34:13;18.00;79.20
81321;DHT22;70785;52.570;5.638;2023-09-18T04:36:40;18.10;79.30
81321;DHT22;70785;52.570;5.638;2023-09-18T04:39:06;18.10;79.20
81321;DHT22;70785;52.570;5.638;2023-09-18T04:41:33;18.10;79.20
81321;DHT22;70785;52.570;5.638;2023-09-18T04:44:01;18.10;79.20
81321;DHT22;70785;52.570;5.638;2023-09-18T04:46:27;18.10;79.10
81321;DHT22;70785;52.570;5.638;2023-09-18T04:48:53;18.10;79.20
81321;DHT22;70785;52.570;5.638;2023-09-18T04:51:20;18.20;79.20
81321;DHT22;70785;52.570;5.638;2023-09-18T04:53:46;18.20;79.10
81321;DHT22;70785;52.570;5.638;2023-09-18T04:56:12;18.20;79.10
81321;DHT22;70785;52.570;5.638;2023-09-18T04:58:38;18.20;79.10
81321;DHT22;70785;52.570;5.638;2023-09-18T05:01:05;18.20;79.10
81321;DHT22;70785;52.570;5.638;2023-09-18T05:03:37;18.20;79.00
81321;DHT22;70785;52.570;5.638;2023-09-18T05:06:03;18.20;79.00
81321;DHT22;70785;52.570;5.638;2023-09-18T05:08:30;18.20;79.00
81321;DHT22;70785;52.570;5.638;2023-09-18T05:10:57;18.20;79.00
81321;DHT22;70785;52.570;5.638;2023-09-18T05:13:23;18.20;79.00
81321;DHT22;70785;52.570;5.638;2023-09-18T05:15:49;18.20;79.00
81321;DHT22;70785;52.570;5.638;2023-09-18T05:18:15;18.20;79.00
81321;DHT22;70785;52.570;5.638;2023-09-18T05:20:42;18.30;79.00
81321;DHT22;70785;52.570;5.638;2023-09-18T05:23:08;18.30;79.00
81321;DHT22;70785;52.570;5.638;2023-09-18T05:25:34;18.40;79.00
81321;DHT22;70785;52.570;5.638;2023-09-18T05:28:03;18.40;79.00
81321;DHT22;70785;52.570;5.638;2023-09-18T05:30:33;18.50;79.00
81321;DHT22;70785;52.570;5.638;2023-09-18T05:33:01;18.50;79.00
81321;DHT22;70785;52.570;5.638;2023-09-18T05:35:35;18.50;79.00
81321;DHT22;70785;52.570;5.638;2023-09-18T05:38:03;18.60;79.00
81321;DHT22;70785;52.570;5.638;2023-09-18T05:40:29;18.60;78.90
81321;DHT22;70785;52.570;5.638;2023-09-18T05:42:56;18.70;78.90
81321;DHT22;70785;52.570;5.638;2023-09-18T05:45:23;18.70;78.80
81321;DHT22;70785;52.570;5.638;2023-09-18T05:47:50;18.80;78.70
81321;DHT22;70785;52.570;5.638;2023-09-18T05:50:16;18.80;78.60
81321;DHT22;70785;52.570;5.638;2023-09-18T05:52:44;18.80;78.50
81321;DHT22;70785;52.570;5.638;2023-09-18T05:55:10;18.80;78.40
81321;DHT22;70785;52.570;5.638;2023-09-18T05:57:37;18.80;78.40
81321;DHT22;70785;52.570;5.638;2023-09-18T06:00:03;18.80;78.50
81321;DHT22;70785;52.570;5.638;2023-09-18T06:02:38;18.70;78.50
81321;DHT22;70785;52.570;5.638;2023-09-18T06:05:04;18.70;78.60
81321;DHT22;70785;52.570;5.638;2023-09-18T06:07:31;18.60;78.70
81321;DHT22;70785;52.570;5.638;2023-09-18T06:09:58;18.60;78.90
81321;DHT22;70785;52.570;5.638;2023-09-18T06:12:24;18.60;78.90
81321;DHT22;70785;52.570;5.638;2023-09-18T06:14:51;18.50;78.90
81321;DHT22;70785;52.570;5.638;2023-09-18T06:17:18;18.50;79.00
81321;DHT22;70785;52.570;5.638;2023-09-18T06:19:45;18.50;79.00
81321;DHT22;70785;52.570;5.638;2023-09-18T06:22:12;18.50;79.10
81321;DHT22;70785;52.570;5.638;2023-09-18T06:24:38;18.40;79.10
81321;DHT22;70785;52.570;5.638;2023-09-18T06:27:04;18.40;79.20
81321;DHT22;70785;52.570;5.638;2023-09-18T06:29:34;18.40;79.30
81321;DHT22;70785;52.570;5.638;2023-09-18T06:32:00;18.40;79.40
81321;DHT22;70785;52.570;5.638;2023-09-18T06:34:27;18.40;79.40
81321;DHT22;70785;52.570;5.638;2023-09-18T06:36:54;18.40;79.40
81321;DHT22;70785;52.570;5.638;2023-09-18T06:39:20;18.40;79.40
81321;DHT22;70785;52.570;5.638;2023-09-18T06:41:48;18.50;79.50
81321;DHT22;70785;52.570;5.638;2023-09-18T06:44:14;18.50;79.50
81321;DHT22;70785;52.570;5.638;2023-09-18T06:46:40;18.50;79.50
81321;DHT22;70785;52.570;5.638;2023-09-18T06:49:07;18.50;79.40
81321;DHT22;70785;52.570;5.638;2023-09-18T06:51:33;18.50;79.40
81321;DHT22;70785;52.570;5.638;2023-09-18T06:53:59;18.50;79.40
81321;DHT22;70785;52.570;5.638;2023-09-18T06:56:28;18.50;79.40
81321;DHT22;70785;52.570;5.638;2023-09-18T06:58:55;18.50;79.40
81321;DHT22;70785;52.570;5.638;2023-09-18T07:01:22;18.60;79.30
81321;DHT22;70785;52.570;5.638;2023-09-18T07:03:50;18.60;79.40
81321;DHT22;70785;52.570;5.638;2023-09-18T07:06:16;18.60;79.40
81321;DHT22;70785;52.570;5.638;2023-09-18T07:08:44;18.60;79.40
81321;DHT22;70785;52.570;5.638;2023-09-18T07:11:10;18.60;79.40
81321;DHT22;70785;52.570;5.638;2023-09-18T07:13:38;18.70;79.40
81321;DHT22;70785;52.570;5.638;2023-09-18T07:16:06;18.70;79.40
81321;DHT22;70785;52.570;5.638;2023-09-18T07:18:32;18.70;79.40
81321;DHT22;70785;52.570;5.638;2023-09-18T07:20:58;18.70;79.40
81321;DHT22;70785;52.570;5.638;2023-09-18T07:23:24;18.70;79.40
81321;DHT22;70785;52.570;5.638;2023-09-18T07:25:51;18.70;79.40
81321;DHT22;70785;52.570;5.638;2023-09-18T07:28:17;18.70;79.50
81321;DHT22;70785;52.570;5.638;2023-09-18T07:30:45;18.70;79.50
81321;DHT22;70785;52.570;5.638;2023-09-18T07:33:12;18.80;79.60
81321;DHT22;70785;52.570;5.638;2023-09-18T07:35:38;18.80;79.50
81321;DHT22;70785;52.570;5.638;2023-09-18T07:38:04;18.80;79.50
81321;DHT22;70785;52.570;5.638;2023-09-18T07:40:30;18.90;79.40
81321;DHT22;70785;52.570;5.638;2023-09-18T07:42:56;18.90;79.30
81321;DHT22;70785;52.570;5.638;2023-09-18T07:45:23;19.00;79.30
81321;DHT22;70785;52.570;5.638;2023-09-18T07:47:50;19.00;79.30
81321;DHT22;70785;52.570;5.638;2023-09-18T07:50:16;19.10;79.20
81321;DHT22;70785;52.570;5.638;2023-09-18T07:52:43;19.10;79.10
81321;DHT22;70785;52.570;5.638;2023-09-18T07:55:09;19.10;79.10
81321;DHT22;70785;52.570;5.638;2023-09-18T07:57:35;19.20;79.10
81321;DHT22;70785;52.570;5.638;2023-09-18T08:00:04;19.20;79.00
81321;DHT22;70785;52.570;5.638;2023-09-18T08:02:39;19.30;79.00
81321;DHT22;70785;52.570;5.638;2023-09-18T08:05:05;19.30;78.90
81321;DHT22;70785;52.570;5.638;2023-09-18T08:07:31;19.40;78.80
81321;DHT22;70785;52.570;5.638;2023-09-18T08:09:58;19.40;78.80
81321;DHT22;70785;52.570;5.638;2023-09-18T08:12:24;19.40;78.70
81321;DHT22;70785;52.570;5.638;2023-09-18T08:14:50;19.40;78.60
81321;DHT22;70785;52.570;5.638;2023-09-18T08:17:19;19.50;78.70
81321;DHT22;70785;52.570;5.638;2023-09-18T08:19:45;19.50;78.70
81321;DHT22;70785;52.570;5.638;2023-09-18T08:22:11;19.50;78.70
81321;DHT22;70785;52.570;5.638;2023-09-18T08:24:41;19.50;78.60
81321;DHT22;70785;52.570;5.638;2023-09-18T08:27:07;19.60;78.70
81321;DHT22;70785;52.570;5.638;2023-09-18T08:29:33;19.70;78.50
81321;DHT22;70785;52.570;5.638;2023-09-18T08:32:00;19.70;78.40
81321;DHT22;70785;52.570;5.638;2023-09-18T08:34:26;19.80;78.30
81321;DHT22;70785;52.570;5.638;2023-09-18T08:36:52;19.90;78.10
81321;DHT22;70785;52.570;5.638;2023-09-18T08:39:18;19.90;78.00
81321;DHT22;70785;52.570;5.638;2023-09-18T08:41:49;20.00;77.90
81321;DHT22;70785;52.570;5.638;2023-09-18T08:44:17;20.00;77.80
81321;DHT22;70785;52.570;5.638;2023-09-18T08:46:44;20.10;77.50
81321;DHT22;70785;52.570;5.638;2023-09-18T08:49:11;20.10;77.50
81321;DHT22;70785;52.570;5.638;2023-09-18T08:51:38;20.10;77.40
81321;DHT22;70785;52.570;5.638;2023-09-18T08:54:05;20.20;77.20
81321;DHT22;70785;52.570;5.638;2023-09-18T08:56:32;20.10;77.20
81321;DHT22;70785;52.570;5.638;2023-09-18T08:58:59;20.10;77.20
81321;DHT22;70785;52.570;5.638;2023-09-18T09:01:25;20.20;77.20
81321;DHT22;70785;52.570;5.638;2023-09-18T09:03:52;20.30;77.10
81321;DHT22;70785;52.570;5.638;2023-09-18T09:06:18;20.30;77.00
81321;DHT22;70785;52.570;5.638;2023-09-18T09:08:44;20.40;76.90
81321;DHT22;70785;52.570;5.638;2023-09-18T09:11:10;20.50;76.70
81321;DHT22;70785;52.570;5.638;2023-09-18T09:13:36;20.50;76.60
81321;DHT22;70785;52.570;5.638;2023-09-18T09:16:02;20.60;76.50
81321;DHT22;70785;52.570;5.638;2023-09-18T09:18:30;20.50;76.40
81321;DHT22;70785;52.570;5.638;2023-09-18T09:21:02;20.60;76.30
81321;DHT22;70785;52.570;5.638;2023-09-18T09:23:46;20.60;76.10
81321;DHT22;70785;52.570;5.638;2023-09-18T09:26:16;20.60;76.00
81321;DHT22;70785;52.570;5.638;2023-09-18T09:28:43;20.60;75.90
81321;DHT22;70785;52.570;5.638;2023-09-18T09:31:10;20.60;75.70
81321;DHT22;70785;52.570;5.638;2023-09-18T09:33:37;20.60;75.60
81321;DHT22;70785;52.570;5.638;2023-09-18T09:36:05;20.60;75.50
81321;DHT22;70785;52.570;5.638;2023-09-18T09:38:33;20.60;75.50
81321;DHT22;70785;52.570;5.638;2023-09-18T09:41:00;20.70;75.50
81321;DHT22;70785;52.570;5.638;2023-09-18T09:43:28;20.90;75.10
81321;DHT22;70785;52.570;5.638;2023-09-18T09:46:01;20.90;74.80
81321;DHT22;70785;52.570;5.638;2023-09-18T09:48:28;20.90;74.60
81321;DHT22;70785;52.570;5.638;2023-09-18T09:51:00;21.00;74.60
81321;DHT22;70785;52.570;5.638;2023-09-18T09:53:46;21.10;74.30
81321;DHT22;70785;52.570;5.638;2023-09-18T09:56:17;21.10;73.80
81321;DHT22;70785;52.570;5.638;2023-09-18T09:59:20;21.10;73.90
81321;DHT22;70785;52.570;5.638;2023-09-18T10:01:47;21.10;73.60
81321;DHT22;70785;52.570;5.638;2023-09-18T10:04:16;21.20;73.60
81321;DHT22;70785;52.570;5.638;2023-09-18T10:06:45;21.10;73.40
81321;DHT22;70785;52.570;5.638;2023-09-18T10:09:13;21.00;73.40
81321;DHT22;70785;52.570;5.638;2023-09-18T10:11:45;20.90;73.40
81321;DHT22;70785;52.570;5.638;2023-09-18T10:14:16;20.70;73.50
81321;DHT22;70785;52.570;5.638;2023-09-18T10:16:45;20.60;73.60
81321;DHT22;70785;52.570;5.638;2023-09-18T10:19:27;20.50;73.60
81321;DHT22;70785;52.570;5.638;2023-09-18T10:24:40;20.40;73.70
81321;DHT22;70785;52.570;5.638;2023-09-18T10:27:11;20.50;73.60
81321;DHT22;70785;52.570;5.638;2023-09-18T10:29:40;20.50;73.50
81321;DHT22;70785;52.570;5.638;2023-09-18T10:32:08;20.50;73.40
81321;DHT22;70785;52.570;5.638;2023-09-18T10:34:35;20.70;73.20
81321;DHT22;70785;52.570;5.638;2023-09-18T10:37:03;20.80;73.00
81321;DHT22;70785;52.570;5.638;2023-09-18T10:39:38;20.90;72.70
81321;DHT22;70785;52.570;5.638;2023-09-18T10:42:08;21.00;72.50
81321;DHT22;70785;52.570;5.638;2023-09-18T10:44:35;21.10;72.40
81321;DHT22;70785;52.570;5.638;2023-09-18T10:47:04;21.30;72.00
81321;DHT22;70785;52.570;5.638;2023-09-18T10:49:31;21.30;71.40
81321;DHT22;70785;52.570;5.638;2023-09-18T10:51:58;21.40;71.10
81321;DHT22;70785;52.570;5.638;2023-09-18T10:54:26;21.40;71.00
81321;DHT22;70785;52.570;5.638;2023-09-18T10:56:54;21.40;70.90
81321;DHT22;70785;52.570;5.638;2023-09-18T10:59:21;21.40;70.80
81321;DHT22;70785;52.570;5.638;2023-09-18T11:01:47;21.60;70.50
81321;DHT22;70785;52.570;5.638;2023-09-18T11:04:17;21.70;70.10
81321;DHT22;70785;52.570;5.638;2023-09-18T11:09:29;21.70;69.70
81321;DHT22;70785;52.570;5.638;2023-09-18T11:20:09;22.20;68.30
81321;DHT22;70785;52.570;5.638;2023-09-18T11:22:48;22.20;68.30
81321;DHT22;70785;52.570;5.638;2023-09-18T11:28:07;22.00;68.40
81321;DHT22;70785;52.570;5.638;2023-09-18T11:30:37;21.90;68.80
81321;DHT22;70785;52.570;5.638;2023-09-18T11:33:07;22.00;68.90
81321;DHT22;70785;52.570;5.638;2023-09-18T11:35:35;22.10;69.10
81321;DHT22;70785;52.570;5.638;2023-09-18T11:38:05;22.10;69.20
81321;DHT22;70785;52.570;5.638;2023-09-18T11:40:33;22.20;69.10
81321;DHT22;70785;52.570;5.638;2023-09-18T11:43:26;22.50;68.70
81321;DHT22;70785;52.570;5.638;2023-09-18T11:45:59;22.60;68.20
81321;DHT22;70785;52.570;5.638;2023-09-18T11:48:26;22.60;68.20
81321;DHT22;70785;52.570;5.638;2023-09-18T11:50:58;22.60;68.20
81321;DHT22;70785;52.570;5.638;2023-09-18T11:53:27;22.50;68.10
81321;DHT22;70785;52.570;5.638;2023-09-18T11:55:53;22.50;67.70
81321;DHT22;70785;52.570;5.638;2023-09-18T11:58:20;22.40;67.60
81321;DHT22;70785;52.570;5.638;2023-09-18T12:00:50;22.50;67.30
81321;DHT22;70785;52.570;5.638;2023-09-18T12:03:21;22.50;67.10
81321;DHT22;70785;52.570;5.638;2023-09-18T12:05:56;22.60;66.30
81321;DHT22;70785;52.570;5.638;2023-09-18T12:08:24;22.70;66.30
81321;DHT22;70785;52.570;5.638;2023-09-18T12:10:54;22.70;66.10
81321;DHT22;70785;52.570;5.638;2023-09-18T12:13:21;22.60;66.20
81321;DHT22;70785;52.570;5.638;2023-09-18T12:15:48;22.50;66.30
81321;DHT22;70785;52.570;5.638;2023-09-18T12:18:15;22.30;66.60
81321;DHT22;70785;52.570;5.638;2023-09-18T12:20:46;22.30;66.80
81321;DHT22;70785;52.570;5.638;2023-09-18T12:23:13;22.30;66.60
81321;DHT22;70785;52.570;5.638;2023-09-18T12:25:39;22.20;66.90
81321;DHT22;70785;52.570;5.638;2023-09-18T12:28:07;22.20;66.90
81321;DHT22;70785;52.570;5.638;2023-09-18T12:30:34;22.30;66.70
81321;DHT22;70785;52.570;5.638;2023-09-18T12:33:01;22.30;66.50
81321;DHT22;70785;52.570;5.638;2023-09-18T12:35:27;22.30;66.40
81321;DHT22;70785;52.570;5.638;2023-09-18T12:37:59;22.30;65.90
81321;DHT22;70785;52.570;5.638;2023-09-18T12:40:26;22.30;65.50
81321;DHT22;70785;52.570;5.638;2023-09-18T12:42:55;22.30;65.50
81321;DHT22;70785;52.570;5.638;2023-09-18T12:45:22;22.50;65.70
81321;DHT22;70785;52.570;5.638;2023-09-18T12:47:50;22.50;65.70
81321;DHT22;70785;52.570;5.638;2023-09-18T12:50:16;22.50;65.60
81321;DHT22;70785;52.570;5.638;2023-09-18T12:52:43;22.50;65.40
81321;DHT22;70785;52.570;5.638;2023-09-18T12:55:23;22.50;65.70
81321;DHT22;70785;52.570;5.638;2023-09-18T12:57:51;22.60;65.30
81321;DHT22;70785;52.570;5.638;2023-09-18T13:00:21;22.50;65.60
81321;DHT22;70785;52.570;5.638;2023-09-18T13:02:52;22.60;65.50
81321;DHT22;70785;52.570;5.638;2023-09-18T13:05:22;22.50;65.50
81321;DHT22;70785;52.570;5.638;2023-09-18T13:07:55;22.50;65.30
81321;DHT22;70785;52.570;5.638;2023-09-18T13:10:21;22.40;65.30
81321;DHT22;70785;52.570;5.638;2023-09-18T13:12:53;22.30;65.50
81321;DHT22;70785;52.570;5.638;2023-09-18T13:15:30;22.30;65.40
81321;DHT22;70785;52.570;5.638;2023-09-18T13:17:59;22.20;65.20
81321;DHT22;70785;52.570;5.638;2023-09-18T13:20:29;22.20;65.40
81321;DHT22;70785;52.570;5.638;2023-09-18T13:22:57;22.20;65.60
81321;DHT22;70785;52.570;5.638;2023-09-18T13:25:25;22.50;65.70
81321;DHT22;70785;52.570;5.638;2023-09-18T13:27:53;22.90;65.30
81321;DHT22;70785;52.570;5.638;2023-09-18T13:30:20;23.10;65.00
81321;DHT22;70785;52.570;5.638;2023-09-18T13:32:49;23.30;64.90
81321;DHT22;70785;52.570;5.638;2023-09-18T13:35:16;23.50;64.60
81321;DHT22;70785;52.570;5.638;2023-09-18T13:37:43;23.60;64.40
81321;DHT22;70785;52.570;5.638;2023-09-18T13:40:10;23.50;64.40
81321;DHT22;70785;52.570;5.638;2023-09-18T13:42:37;23.50;64.50
81321;DHT22;70785;52.570;5.638;2023-09-18T13:45:05;23.60;64.10
81321;DHT22;70785;52.570;5.638;2023-09-18T13:47:35;23.60;64.00
81321;DHT22;70785;52.570;5.638;2023-09-18T13:50:03;23.60;64.10
81321;DHT22;70785;52.570;5.638;2023-09-18T13:52:32;23.80;63.90
81321;DHT22;70785;52.570;5.638;2023-09-18T13:54:59;23.80;63.60
81321;DHT22;70785;52.570;5.638;2023-09-18T13:57:25;23.90;63.70
81321;DHT22;70785;52.570;5.638;2023-09-18T13:59:52;24.00;63.80
81321;DHT22;70785;52.570;5.638;2023-09-18T14:02:18;24.20;63.00
81321;DHT22;70785;52.570;5.638;2023-09-18T14:04:45;24.00;62.20
81321;DHT22;70785;52.570;5.638;2023-09-18T14:07:11;23.90;61.80
81321;DHT22;70785;52.570;5.638;2023-09-18T14:09:38;23.90;62.00
81321;DHT22;70785;52.570;5.638;2023-09-18T14:12:05;24.20;62.40
81321;DHT22;70785;52.570;5.638;2023-09-18T14:14:35;24.50;62.00
81321;DHT22;70785;52.570;5.638;2023-09-18T14:17:02;24.70;62.00
81321;DHT22;70785;52.570;5.638;2023-09-18T14:19:30;24.90;61.70
81321;DHT22;70785;52.570;5.638;2023-09-18T14:21:56;25.10;61.80
81321;DHT22;70785;52.570;5.638;2023-09-18T14:24:22;25.40;61.30
81321;DHT22;70785;52.570;5.638;2023-09-18T14:26:51;25.60;60.90
81321;DHT22;70785;52.570;5.638;2023-09-18T14:29:18;25.80;60.20
81321;DHT22;70785;52.570;5.638;2023-09-18T14:31:44;26.00;59.70
81321;DHT22;70785;52.570;5.638;2023-09-18T14:34:10;26.20;59.20
81321;DHT22;70785;52.570;5.638;2023-09-18T14:36:36;26.40;58.90
81321;DHT22;70785;52.570;5.638;2023-09-18T14:39:02;26.50;58.70
81321;DHT22;70785;52.570;5.638;2023-09-18T14:41:29;26.80;58.50
81321;DHT22;70785;52.570;5.638;2023-09-18T14:43:57;26.90;58.00
81321;DHT22;70785;52.570;5.638;2023-09-18T14:46:24;26.90;57.60
81321;DHT22;70785;52.570;5.638;2023-09-18T14:48:50;26.80;57.40
81321;DHT22;70785;52.570;5.638;2023-09-18T14:51:17;26.50;57.20
81321;DHT22;70785;52.570;5.638;2023-09-18T14:53:44;26.00;57.20
81321;DHT22;70785;52.570;5.638;2023-09-18T14:56:10;25.70;57.60
81321;DHT22;70785;52.570;5.638;2023-09-18T14:58:40;25.30;57.60
81321;DHT22;70785;52.570;5.638;2023-09-18T15:01:06;24.80;58.00
81321;DHT22;70785;52.570;5.638;2023-09-18T15:03:32;24.40;58.40
81321;DHT22;70785;52.570;5.638;2023-09-18T15:05:58;24.10;58.80
81321;DHT22;70785;52.570;5.638;2023-09-18T15:08:25;23.90;59.10
81321;DHT22;70785;52.570;5.638;2023-09-18T15:10:51;23.60;59.20
81321;DHT22;70785;52.570;5.638;2023-09-18T15:13:17;23.40;59.60
81321;DHT22;70785;52.570;5.638;2023-09-18T15:15:43;23.20;60.00
81321;DHT22;70785;52.570;5.638;2023-09-18T15:18:09;23.00;60.20
81321;DHT22;70785;52.570;5.638;2023-09-18T15:20:36;22.80;60.50
81321;DHT22;70785;52.570;5.638;2023-09-18T15:23:02;22.60;60.70
81321;DHT22;70785;52.570;5.638;2023-09-18T15:25:28;22.50;61.00
81321;DHT22;70785;52.570;5.638;2023-09-18T15:27:55;22.30;61.40
81321;DHT22;70785;52.570;5.638;2023-09-18T15:30:22;22.10;61.90
81321;DHT22;70785;52.570;5.638;2023-09-18T15:32:53;21.90;62.50
81321;DHT22;70785;52.570;5.638;2023-09-18T15:35:20;21.70;63.20
81321;DHT22;70785;52.570;5.638;2023-09-18T15:37:46;21.50;63.70
81321;DHT22;70785;52.570;5.638;2023-09-18T15:40:12;21.20;64.30
81321;DHT22;70785;52.570;5.638;2023-09-18T15:42:41;21.00;64.90
81321;DHT22;70785;52.570;5.638;2023-09-18T15:45:08;20.80;65.30
81321;DHT22;70785;52.570;5.638;2023-09-18T15:47:40;20.60;65.80
81321;DHT22;70785;52.570;5.638;2023-09-18T15:50:08;20.50;66.60
81321;DHT22;70785;52.570;5.638;2023-09-18T15:52:36;20.30;67.00